createdAt,value
2023-02-28T00:01:11.207Z,-3.40
2023-02-28T00:03:39.101Z,-3.60
2023-02-28T00:06:07.928Z,-3.70
2023-02-28T00:08:37.165Z,-3.90
2023-02-28T00:14:46.327Z,-3.50
2023-02-28T00:17:14.302Z,-3.50
2023-02-28T00:19:42.347Z,-3.70
2023-02-28T00:22:10.196Z,-3.70
2023-02-28T00:24:39.539Z,-3.80
2023-02-28T00:27:07.446Z,-3.80
2023-02-28T00:29:35.408Z,-3.70
2023-02-28T00:32:03.352Z,-3.70
2023-02-28T00:34:31.415Z,-3.70
2023-02-28T00:36:59.273Z,-3.60
2023-02-28T00:39:27.312Z,-3.70
2023-02-28T00:41:56.507Z,-3.70
2023-02-28T00:44:24.588Z,-3.50
2023-02-28T00:46:52.628Z,-3.50
2023-02-28T00:49:20.918Z,-3.50
2023-02-28T00:51:48.780Z,-3.50
2023-02-28T00:54:16.851Z,-3.50
2023-02-28T00:56:44.706Z,-3.50
2023-02-28T00:59:13.914Z,-3.60
2023-02-28T01:01:41.791Z,-3.60
2023-02-28T01:04:09.695Z,-3.50
2023-02-28T01:06:37.971Z,-3.60
2023-02-28T01:09:06.163Z,-3.60
2023-02-28T01:11:34.200Z,-3.60
2023-02-28T01:14:02.067Z,-3.60
2023-02-28T01:16:31.359Z,-3.70
2023-02-28T01:18:59.214Z,-3.50
2023-02-28T01:21:27.587Z,-3.50
2023-02-28T01:23:57.962Z,-3.60
2023-02-28T01:26:26.000Z,-3.70
2023-02-28T01:28:54.488Z,-3.90
2023-02-28T01:31:22.611Z,-3.80
2023-02-28T01:33:51.910Z,-3.90
2023-02-28T01:36:21.039Z,-4.00
2023-02-28T01:38:49.007Z,-3.90
2023-02-28T01:41:18.796Z,-4.00
2023-02-28T01:44:08.479Z,-4.10
2023-02-28T01:46:36.941Z,-4.10
2023-02-28T01:49:08.531Z,-4.10
2023-02-28T01:51:40.337Z,-4.10
2023-02-28T01:54:14.429Z,-4.10
2023-02-28T01:56:44.301Z,-4.10
2023-02-28T01:59:12.186Z,-4.20
2023-02-28T02:01:40.125Z,-4.20
2023-02-28T02:04:09.342Z,-4.20
2023-02-28T02:06:39.285Z,-4.30
2023-02-28T02:09:07.174Z,-4.40
2023-02-28T02:11:35.026Z,-4.50
2023-02-28T02:14:14.937Z,-4.40
2023-02-28T02:16:49.650Z,-4.40
2023-02-28T02:19:30.758Z,-4.40
2023-02-28T02:22:37.384Z,-4.40
2023-02-28T02:25:13.770Z,-4.50
2023-02-28T02:28:01.775Z,-4.60
2023-02-28T02:30:55.300Z,-4.80
2023-02-28T02:34:11.218Z,-4.80
2023-02-28T02:36:41.529Z,-4.90
2023-02-28T02:39:12.636Z,-4.90
2023-02-28T02:41:42.044Z,-5.10
2023-02-28T02:44:13.402Z,-5.30
2023-02-28T02:46:43.229Z,-5.40
2023-02-28T02:49:17.051Z,-5.40
2023-02-28T02:51:44.940Z,-5.40
2023-02-28T02:54:13.817Z,-5.30
2023-02-28T02:56:41.929Z,-5.20
2023-02-28T02:59:11.494Z,-5.20
2023-02-28T03:01:39.344Z,-5.10
2023-02-28T03:04:10.445Z,-5.10
2023-02-28T03:06:39.752Z,-4.90
2023-02-28T03:12:59.750Z,-5.20
2023-02-28T03:15:29.069Z,-5.10
2023-02-28T03:18:03.433Z,-5.10
2023-02-28T03:20:37.619Z,-5.10
2023-02-28T03:23:15.494Z,-5.10
2023-02-28T03:25:50.332Z,-4.80
2023-02-28T03:28:21.785Z,-4.80
2023-02-28T03:30:54.940Z,-4.90
2023-02-28T03:33:25.368Z,-4.90
2023-02-28T03:35:55.062Z,-4.90
2023-02-28T03:38:26.451Z,-4.90
2023-02-28T03:41:02.131Z,-4.70
2023-02-28T03:43:31.812Z,-4.70
2023-02-28T03:45:59.725Z,-4.70
2023-02-28T03:48:29.625Z,-4.70
2023-02-28T03:50:57.942Z,-4.70
2023-02-28T03:53:28.698Z,-4.90
2023-02-28T03:55:58.270Z,-4.80
2023-02-28T03:58:30.009Z,-4.90
2023-02-28T04:00:59.599Z,-4.80
2023-02-28T04:03:27.431Z,-4.90
2023-02-28T04:05:56.658Z,-4.70
2023-02-28T04:08:24.550Z,-4.90
2023-02-28T04:10:57.758Z,-4.80
2023-02-28T04:13:25.712Z,-5.00
2023-02-28T04:15:53.815Z,-5.30
2023-02-28T04:18:21.729Z,-5.10
2023-02-28T04:20:49.604Z,-5.20
2023-02-28T04:23:17.501Z,-5.20
2023-02-28T04:25:45.580Z,-5.40
2023-02-28T04:28:14.852Z,-5.30
2023-02-28T04:30:42.666Z,-5.30
2023-02-28T04:33:10.530Z,-5.20
2023-02-28T04:35:38.469Z,-5.40
2023-02-28T04:38:06.344Z,-5.50
2023-02-28T04:40:34.179Z,-5.80
2023-02-28T04:43:02.061Z,-5.90
2023-02-28T04:45:33.112Z,-6.00
2023-02-28T04:48:01.075Z,-6.10
2023-02-28T04:50:28.942Z,-6.20
2023-02-28T04:52:56.826Z,-6.20
2023-02-28T04:55:24.651Z,-6.20
2023-02-28T04:57:52.649Z,-6.20
2023-02-28T05:00:21.082Z,-6.00
2023-02-28T05:02:50.315Z,-6.10
2023-02-28T05:05:19.101Z,-6.10
2023-02-28T05:07:47.085Z,-6.00
2023-02-28T05:10:14.886Z,-6.10
2023-02-28T05:12:42.823Z,-6.40
2023-02-28T05:15:12.040Z,-6.50
2023-02-28T05:17:39.910Z,-6.60
2023-02-28T05:20:15.743Z,-6.60
2023-02-28T05:22:44.190Z,-6.70
2023-02-28T05:25:13.431Z,-6.60
2023-02-28T05:27:41.375Z,-6.70
2023-02-28T05:30:11.458Z,-6.50
2023-02-28T05:32:39.346Z,-6.60
2023-02-28T05:35:09.142Z,-6.60
2023-02-28T05:37:37.021Z,-6.60
2023-02-28T05:40:07.021Z,-6.60
2023-02-28T05:42:34.916Z,-6.70
2023-02-28T05:45:02.756Z,-6.70
2023-02-28T05:47:30.604Z,-6.50
2023-02-28T05:49:58.439Z,-6.30
2023-02-28T05:52:27.678Z,-6.20
2023-02-28T05:54:55.527Z,-6.30
2023-02-28T05:57:24.873Z,-6.20
2023-02-28T05:59:53.084Z,-6.30
2023-02-28T06:02:20.979Z,-6.40
2023-02-28T06:04:48.814Z,-6.30
2023-02-28T06:07:18.348Z,-6.60
2023-02-28T06:09:47.519Z,-6.60
2023-02-28T06:12:15.376Z,-6.60
2023-02-28T06:14:43.216Z,-6.60
2023-02-28T06:17:11.023Z,-6.70
2023-02-28T06:19:39.741Z,-4.80
2023-02-28T06:22:07.569Z,-5.60
2023-02-28T06:24:35.640Z,-6.00
2023-02-28T06:27:06.328Z,-6.10
2023-02-28T06:29:34.721Z,-6.10
2023-02-28T06:32:02.578Z,-6.30
2023-02-28T06:34:30.516Z,-6.30
2023-02-28T06:37:01.480Z,-6.40
2023-02-28T06:39:29.360Z,-6.30
2023-02-28T06:41:57.948Z,-6.20
2023-02-28T06:44:27.349Z,-6.10
2023-02-28T06:46:55.166Z,-6.30
2023-02-28T06:49:23.023Z,-6.30
2023-02-28T06:51:50.900Z,-6.20
2023-02-28T06:54:18.771Z,-6.10
2023-02-28T06:56:47.994Z,-6.10
2023-02-28T06:59:15.872Z,-6.00
2023-02-28T07:01:45.230Z,-6.00
2023-02-28T07:04:14.239Z,-5.80
2023-02-28T07:06:42.197Z,-5.80
2023-02-28T07:09:10.316Z,-5.60
2023-02-28T07:11:38.130Z,-5.50
2023-02-28T07:14:05.971Z,-5.50
2023-02-28T07:16:33.803Z,-5.50
2023-02-28T07:19:03.031Z,-5.40
2023-02-28T07:21:31.178Z,-5.30
2023-02-28T07:23:59.370Z,-5.00
2023-02-28T07:26:27.253Z,-4.90
2023-02-28T07:28:55.303Z,-4.60
2023-02-28T07:31:23.303Z,-4.70
2023-02-28T07:33:51.235Z,-4.70
2023-02-28T07:36:20.575Z,-4.70
2023-02-28T07:38:49.176Z,-4.50
2023-02-28T07:41:17.456Z,-4.60
2023-02-28T07:43:45.618Z,-4.60
2023-02-28T07:46:16.009Z,-4.40
2023-02-28T07:48:44.125Z,-4.10
2023-02-28T07:51:11.972Z,-4.10
2023-02-28T07:53:41.124Z,-4.10
2023-02-28T07:56:09.495Z,-4.00
2023-02-28T07:58:37.378Z,-4.00
2023-02-28T08:01:08.664Z,-3.80
2023-02-28T08:03:36.680Z,-3.60
2023-02-28T08:06:05.173Z,-3.70
2023-02-28T08:08:33.226Z,-3.90
2023-02-28T08:11:03.119Z,-4.00
2023-02-28T08:13:31.404Z,-3.90
2023-02-28T08:15:59.421Z,-3.90
2023-02-28T08:18:27.455Z,-3.90
2023-02-28T08:20:55.280Z,-3.90
2023-02-28T08:23:23.191Z,-3.90
2023-02-28T08:25:55.683Z,-3.90
2023-02-28T08:28:27.135Z,-3.90
2023-02-28T08:30:55.742Z,-3.90
2023-02-28T08:33:23.807Z,-3.80
2023-02-28T08:35:54.534Z,-3.80
2023-02-28T08:38:22.423Z,-3.90
2023-02-28T08:40:50.273Z,-3.80
2023-02-28T08:43:18.122Z,-3.70
2023-02-28T08:45:47.363Z,-3.40
2023-02-28T08:48:17.179Z,-3.40
2023-02-28T08:50:50.404Z,-3.30
2023-02-28T08:53:23.687Z,-3.10
2023-02-28T08:55:58.295Z,-3.20
2023-02-28T08:58:26.286Z,-3.40
2023-02-28T09:00:55.633Z,-3.30
2023-02-28T09:03:24.348Z,-3.10
2023-02-28T09:05:57.332Z,-3.00
2023-02-28T09:08:25.438Z,-2.90
2023-02-28T09:10:54.225Z,-3.10
2023-02-28T09:13:22.191Z,-3.10
2023-02-28T09:15:50.047Z,-3.00
2023-02-28T09:18:19.284Z,-2.90
2023-02-28T09:20:47.226Z,-2.80
2023-02-28T09:23:15.216Z,-2.70
2023-02-28T09:25:47.545Z,-2.80
2023-02-28T09:28:16.676Z,-2.50
2023-02-28T09:30:44.714Z,-2.50
2023-02-28T09:33:12.632Z,-2.40
2023-02-28T09:35:42.416Z,-2.40
2023-02-28T09:38:10.408Z,-2.40
2023-02-28T09:40:39.281Z,-2.50
2023-02-28T09:43:07.524Z,-2.30
2023-02-28T09:45:37.509Z,-2.20
2023-02-28T09:48:06.782Z,-2.20
2023-02-28T09:50:36.305Z,-2.20
2023-02-28T09:53:07.936Z,-2.20
2023-02-28T09:55:46.275Z,-2.10
2023-02-28T09:58:18.873Z,-1.90
2023-02-28T10:00:46.753Z,-1.90
2023-02-28T10:03:27.890Z,-1.80
2023-02-28T10:05:58.668Z,-1.70
2023-02-28T10:08:28.872Z,-1.60
2023-02-28T10:10:57.835Z,-1.70
2023-02-28T10:13:28.477Z,-1.70
2023-02-28T10:15:58.789Z,-1.90
2023-02-28T10:18:27.541Z,-2.10
2023-02-28T10:20:56.746Z,-1.90
2023-02-28T10:23:27.762Z,-1.50
2023-02-28T10:25:57.366Z,-1.00
2023-02-28T10:28:26.802Z,-0.90
2023-02-28T10:30:55.323Z,-1.00
2023-02-28T10:33:25.389Z,-1.30
2023-02-28T10:35:53.733Z,-1.30
2023-02-28T10:38:23.143Z,-1.40
2023-02-28T10:40:52.665Z,-1.40
2023-02-28T10:43:22.518Z,-1.40
2023-02-28T10:46:02.037Z,-1.30
2023-02-28T10:48:32.820Z,-1.50
2023-02-28T10:51:00.804Z,-1.30
2023-02-28T10:53:57.619Z,-1.30
2023-02-28T10:56:29.576Z,-1.50
2023-02-28T10:58:58.834Z,-1.50
2023-02-28T11:01:35.905Z,-1.40
2023-02-28T11:04:04.162Z,-1.30
2023-02-28T11:06:33.135Z,-1.30
2023-02-28T11:09:01.901Z,-1.30
2023-02-28T11:11:32.916Z,-1.20
2023-02-28T11:14:04.839Z,-1.10
2023-02-28T11:16:34.663Z,-1.10
2023-02-28T11:19:02.669Z,-1.10
2023-02-28T11:21:32.639Z,-1.20
2023-02-28T11:24:03.365Z,-1.10
2023-02-28T11:26:39.852Z,-1.10
2023-02-28T11:29:20.073Z,-1.10
2023-02-28T11:32:03.460Z,-1.10
2023-02-28T11:34:31.483Z,-1.00
2023-02-28T11:37:00.267Z,-0.70
2023-02-28T11:39:28.724Z,-0.70
2023-02-28T11:42:05.149Z,-0.70
2023-02-28T11:44:41.061Z,-0.80
2023-02-28T11:47:11.824Z,-0.90
2023-02-28T11:49:43.856Z,-0.80
2023-02-28T11:52:30.428Z,-0.90
2023-02-28T11:55:09.185Z,-0.80
2023-02-28T11:57:52.512Z,-0.90
2023-02-28T12:00:30.232Z,-0.90
2023-02-28T12:03:03.573Z,-0.90
2023-02-28T12:05:33.226Z,-0.80
2023-02-28T12:08:07.765Z,-0.90
2023-02-28T12:10:37.601Z,-0.80
2023-02-28T12:13:14.853Z,-0.90
2023-02-28T12:16:05.776Z,-0.80
2023-02-28T12:18:42.893Z,-0.80
2023-02-28T12:21:13.570Z,-0.60
2023-02-28T12:24:01.399Z,-0.70
2023-02-28T12:26:34.028Z,-0.80
2023-02-28T12:29:06.748Z,-0.70
2023-02-28T12:31:37.245Z,-0.60
2023-02-28T12:34:07.251Z,-0.60
2023-02-28T12:36:35.240Z,-0.60
2023-02-28T12:39:05.179Z,-0.60
2023-02-28T12:41:37.092Z,-0.60
2023-02-28T12:44:08.171Z,-0.50
2023-02-28T12:46:37.851Z,-0.50
2023-02-28T12:49:08.249Z,-0.50
2023-02-28T12:51:36.648Z,-0.60
2023-02-28T12:54:10.013Z,-0.50
2023-02-28T12:56:44.215Z,-0.60
2023-02-28T12:59:16.757Z,-0.60
2023-02-28T13:02:12.750Z,-0.70
2023-02-28T13:05:09.176Z,-0.50
2023-02-28T13:08:13.197Z,-0.40
2023-02-28T13:10:42.541Z,-0.40
2023-02-28T13:13:15.944Z,-0.30
2023-02-28T13:15:58.667Z,-0.30
2023-02-28T13:18:34.831Z,-0.30
2023-02-28T13:21:03.097Z,-0.30
2023-02-28T13:23:42.509Z,-0.20
2023-02-28T13:26:10.484Z,-0.30
2023-02-28T13:29:24.274Z,-0.20
2023-02-28T13:32:43.876Z,-0.20
2023-02-28T13:35:16.921Z,-0.20
2023-02-28T13:37:45.649Z,-0.30
2023-02-28T13:40:29.994Z,-0.20
2023-02-28T13:42:57.935Z,-0.20
2023-02-28T13:45:28.110Z,-0.30
2023-02-28T13:47:57.052Z,-0.30
2023-02-28T13:50:30.458Z,-0.40
2023-02-28T13:53:27.807Z,-0.60
2023-02-28T13:55:58.582Z,-0.70
2023-02-28T13:58:46.035Z,-0.60
2023-02-28T14:01:33.919Z,-0.50
2023-02-28T14:04:47.106Z,-0.70
2023-02-28T14:07:20.947Z,-0.50
2023-02-28T14:09:51.432Z,-0.50
2023-02-28T14:13:02.433Z,-0.40
2023-02-28T14:15:42.083Z,-0.40
2023-02-28T14:18:18.171Z,-0.40
2023-02-28T14:20:46.505Z,-0.40
2023-02-28T14:23:19.507Z,-0.40
2023-02-28T14:25:50.986Z,-0.40
2023-02-28T14:28:21.320Z,-0.40
2023-02-28T14:31:00.314Z,-0.40
2023-02-28T14:33:34.186Z,-0.40
2023-02-28T14:36:21.479Z,-0.40
2023-02-28T14:38:53.078Z,-0.50
2023-02-28T14:41:25.959Z,-0.40
2023-02-28T14:43:56.087Z,-0.40
2023-02-28T14:46:25.181Z,-0.50
2023-02-28T14:48:53.268Z,-0.50
2023-02-28T14:51:22.423Z,-0.40
2023-02-28T14:53:55.902Z,-0.30
2023-02-28T14:56:26.133Z,-0.40
2023-02-28T14:58:54.760Z,-0.20
2023-02-28T15:01:23.430Z,-0.10
2023-02-28T15:03:58.478Z,-0.10
2023-02-28T15:06:27.547Z,-0.10
2023-02-28T15:09:13.323Z,-0.10
2023-02-28T15:11:41.312Z,-0.10
2023-02-28T15:14:09.146Z,0.10
2023-02-28T15:16:39.793Z,0.20
2023-02-28T15:19:08.524Z,0.70
2023-02-28T15:21:37.097Z,0.60
2023-02-28T15:24:07.055Z,0.70
2023-02-28T15:26:37.926Z,0.60
2023-02-28T15:29:07.690Z,0.40
2023-02-28T15:31:54.304Z,0.50
2023-02-28T15:34:28.543Z,0.40
2023-02-28T15:37:01.352Z,0.40
2023-02-28T15:43:19.366Z,0.40
2023-02-28T15:45:48.020Z,0.50
2023-02-28T15:48:21.221Z,0.60
2023-02-28T15:50:50.590Z,0.60
2023-02-28T15:53:19.873Z,0.60
2023-02-28T15:55:47.766Z,0.70
2023-02-28T15:58:23.591Z,0.60
2023-02-28T16:01:02.679Z,0.50
2023-02-28T16:03:40.726Z,0.40
2023-02-28T16:06:22.582Z,0.50
2023-02-28T16:08:52.305Z,0.50
2023-02-28T16:11:20.151Z,0.40
2023-02-28T16:13:49.344Z,0.50
2023-02-28T16:16:18.395Z,0.40
2023-02-28T16:18:46.319Z,0.30
2023-02-28T16:21:14.249Z,0.30
2023-02-28T16:23:42.680Z,0.10
2023-02-28T16:26:12.292Z,0.00
2023-02-28T16:28:40.128Z,-0.10
2023-02-28T16:31:17.267Z,-0.20
2023-02-28T16:33:45.744Z,-0.40
2023-02-28T16:36:18.024Z,-0.40
2023-02-28T16:38:45.984Z,-0.50
2023-02-28T16:41:19.866Z,-0.60
2023-02-28T16:43:49.242Z,-0.70
2023-02-28T16:46:18.725Z,-0.70
2023-02-28T16:48:46.770Z,-0.90
2023-02-28T16:51:15.017Z,-0.90
2023-02-28T16:53:42.973Z,-1.00
2023-02-28T16:56:16.216Z,-1.00
2023-02-28T16:58:44.057Z,-1.10
2023-02-28T17:01:12.047Z,-1.20
2023-02-28T17:03:41.472Z,-1.20
2023-02-28T17:06:17.465Z,-1.30
2023-02-28T17:08:45.319Z,-1.40
2023-02-28T17:11:13.206Z,-1.40
2023-02-28T17:13:41.044Z,-1.40
2023-02-28T17:16:12.700Z,-1.50
2023-02-28T17:18:41.924Z,-1.40
2023-02-28T17:21:14.774Z,-1.50
2023-02-28T17:23:42.676Z,-1.50
2023-02-28T17:26:15.756Z,-1.60
2023-02-28T17:28:43.587Z,-1.60
2023-02-28T17:31:11.654Z,-1.60
2023-02-28T17:33:40.890Z,-1.60
2023-02-28T17:36:11.117Z,-1.60
2023-02-28T17:38:38.946Z,-1.60
2023-02-28T17:41:06.898Z,-1.70
2023-02-28T17:43:34.752Z,-1.60
2023-02-28T17:46:02.638Z,-1.60
2023-02-28T17:48:32.062Z,-1.70
2023-02-28T17:51:01.824Z,-1.70
2023-02-28T17:53:29.677Z,-1.70
2023-02-28T17:55:57.533Z,-1.60
2023-02-28T17:58:26.305Z,-1.60
2023-02-28T18:00:55.411Z,-1.70
2023-02-28T18:03:24.745Z,-1.60
2023-02-28T18:05:52.665Z,-1.70
2023-02-28T18:08:21.882Z,-0.30
2023-02-28T18:10:49.711Z,0.20
2023-02-28T18:13:17.562Z,-0.50
2023-02-28T18:15:45.470Z,-0.90
2023-02-28T18:18:13.312Z,-1.30
2023-02-28T18:20:41.308Z,-1.30
2023-02-28T18:23:09.168Z,-1.30
2023-02-28T18:25:40.012Z,-1.50
2023-02-28T18:28:07.859Z,-1.60
2023-02-28T18:30:37.725Z,-1.60
2023-02-28T18:33:05.827Z,-1.60
2023-02-28T18:35:36.591Z,-1.70
2023-02-28T18:38:06.100Z,-1.70
2023-02-28T18:40:33.996Z,-1.70
2023-02-28T18:43:03.266Z,-1.70
2023-02-28T18:45:31.174Z,-1.60
2023-02-28T18:47:59.025Z,-1.60
2023-02-28T18:50:26.893Z,-1.70
2023-02-28T18:52:55.190Z,-1.60
2023-02-28T18:55:24.016Z,-1.70
2023-02-28T18:57:51.942Z,-1.70
2023-02-28T19:00:22.662Z,-1.70
2023-02-28T19:02:51.357Z,-1.80
2023-02-28T19:05:19.463Z,-1.80
2023-02-28T19:07:47.579Z,-1.80
2023-02-28T19:10:15.469Z,-1.80
2023-02-28T19:12:43.573Z,-1.80
2023-02-28T19:15:12.293Z,-1.20
2023-02-28T19:17:41.597Z,-0.60
2023-02-28T19:20:10.574Z,-0.70
2023-02-28T19:22:38.546Z,-1.20
2023-02-28T19:25:07.036Z,-1.20
2023-02-28T19:27:35.192Z,-1.50
2023-02-28T19:30:04.555Z,-1.60
2023-02-28T19:32:32.568Z,-1.60
2023-02-28T19:35:02.696Z,-1.60
2023-02-28T19:37:30.732Z,-1.60
2023-02-28T19:39:58.747Z,-1.50
2023-02-28T19:42:29.832Z,-1.60
2023-02-28T19:44:57.713Z,-1.70
2023-02-28T19:47:25.564Z,-1.90
2023-02-28T19:49:54.705Z,-1.80
2023-02-28T19:52:23.967Z,-1.90
2023-02-28T19:54:52.102Z,-1.90
2023-02-28T19:57:19.936Z,-1.90
2023-02-28T19:59:47.845Z,-1.90
2023-02-28T20:02:16.028Z,-1.90
2023-02-28T20:04:43.979Z,-1.90
2023-02-28T20:07:11.871Z,-1.80
2023-02-28T20:09:41.066Z,-1.80
2023-02-28T20:12:17.857Z,-1.80
2023-02-28T20:14:51.280Z,-1.90
2023-02-28T20:17:19.160Z,-2.00
2023-02-28T20:19:47.039Z,-2.10
2023-02-28T20:22:14.941Z,-2.00
2023-02-28T20:24:44.191Z,-2.00
2023-02-28T20:27:12.038Z,-2.00
2023-02-28T20:29:40.300Z,-2.10
2023-02-28T20:32:08.858Z,-2.00
2023-02-28T20:34:36.764Z,-2.10
2023-02-28T20:37:04.602Z,-2.00
2023-02-28T20:39:32.478Z,-2.00
2023-02-28T20:42:01.672Z,-2.10
2023-02-28T20:44:29.510Z,-2.10
2023-02-28T20:46:57.344Z,-2.00
2023-02-28T20:49:25.195Z,-2.00
2023-02-28T20:51:53.033Z,-2.10
2023-02-28T20:54:21.634Z,-2.10
2023-02-28T20:56:49.455Z,-2.10
2023-02-28T20:59:20.954Z,-2.00
2023-02-28T21:01:48.862Z,-2.10
2023-02-28T21:04:16.757Z,-2.10
2023-02-28T21:06:46.379Z,-2.10
2023-02-28T21:09:14.682Z,-2.10
2023-02-28T21:11:42.553Z,-2.10
2023-02-28T21:14:12.264Z,-2.10
2023-02-28T21:16:41.477Z,-2.10
2023-02-28T21:19:10.553Z,-2.10
2023-02-28T21:21:39.444Z,-2.00
2023-02-28T21:24:07.877Z,-2.00
2023-02-28T21:26:35.718Z,-2.00
2023-02-28T21:29:03.729Z,-2.10
2023-02-28T21:31:32.941Z,-2.00
2023-02-28T21:34:02.843Z,-2.00
2023-02-28T21:36:33.387Z,-2.00
2023-02-28T21:39:02.138Z,-2.00
2023-02-28T21:41:30.410Z,-2.00
2023-02-28T21:43:58.309Z,-1.90
2023-02-28T21:46:26.999Z,-1.80
2023-02-28T21:48:55.134Z,-1.70
2023-02-28T21:51:24.938Z,-1.70
2023-02-28T21:53:53.367Z,-1.70
2023-02-28T21:56:22.356Z,-1.80
2023-02-28T21:58:50.340Z,-1.90
2023-02-28T22:01:19.097Z,-1.80
2023-02-28T22:03:47.147Z,-1.80
2023-02-28T22:06:15.851Z,-1.80
2023-02-28T22:08:46.068Z,-1.80
2023-02-28T22:11:14.475Z,-1.90
2023-02-28T22:13:42.382Z,-1.90
2023-02-28T22:16:11.819Z,-1.90
2023-02-28T22:18:39.859Z,-2.00
2023-02-28T22:21:07.839Z,-1.90
2023-02-28T22:23:36.364Z,-1.90
2023-02-28T22:26:06.479Z,-1.80
2023-02-28T22:28:34.334Z,-1.70
2023-02-28T22:31:02.468Z,-1.80
2023-02-28T22:33:30.292Z,-1.90
2023-02-28T22:35:58.181Z,-1.90
2023-02-28T22:38:27.346Z,-1.80
2023-02-28T22:40:57.694Z,-1.90
2023-02-28T22:43:26.876Z,-1.90
2023-02-28T22:45:54.793Z,-2.00
2023-02-28T22:48:22.642Z,-1.90
2023-02-28T22:50:50.495Z,-1.90
2023-02-28T22:53:18.533Z,-1.80
2023-02-28T22:55:46.399Z,-1.80
2023-02-28T22:58:14.256Z,-1.90
2023-02-28T23:00:43.787Z,-1.90
2023-02-28T23:03:11.626Z,-1.80
2023-02-28T23:05:39.469Z,-1.90
2023-02-28T23:08:07.445Z,-1.90
2023-02-28T23:10:35.295Z,-1.90
2023-02-28T23:13:03.131Z,-1.80
2023-02-28T23:15:30.986Z,-1.90
2023-02-28T23:18:00.456Z,-1.90
2023-02-28T23:20:28.432Z,-1.90
2023-02-28T23:22:56.307Z,-1.90
2023-02-28T23:25:24.209Z,-1.90
2023-02-28T23:27:52.027Z,-1.80
2023-02-28T23:30:20.262Z,-1.80
2023-02-28T23:32:48.338Z,-1.90
2023-02-28T23:35:17.753Z,-1.80
2023-02-28T23:37:45.619Z,-1.80
2023-02-28T23:40:14.809Z,-1.80
2023-02-28T23:42:42.698Z,-1.80
2023-02-28T23:45:11.536Z,-1.80
2023-02-28T23:47:39.395Z,-1.80
2023-02-28T23:50:08.128Z,-1.70
2023-02-28T23:52:37.348Z,-1.70
2023-02-28T23:55:05.756Z,-1.60
2023-02-28T23:57:33.617Z,-1.80
